createdAt,value
2019-03-03T00:01:45.858Z,-2.16
2019-03-03T00:04:15.488Z,-2.11
2019-03-03T00:06:46.187Z,-2.19
2019-03-03T00:09:16.407Z,-2.16
2019-03-03T00:11:46.111Z,-2.23
2019-03-03T00:14:15.719Z,-2.39
2019-03-03T00:16:45.841Z,-2.48
2019-03-03T00:19:15.547Z,-2.44
2019-03-03T00:21:47.185Z,-2.25
2019-03-03T00:24:16.904Z,-2.17
2019-03-03T00:26:46.615Z,-2.23
2019-03-03T00:29:16.837Z,-2.19
2019-03-03T00:31:47.673Z,-2.17
2019-03-03T00:34:17.486Z,-2.35
2019-03-03T00:37:01.049Z,-2.21
2019-03-03T00:39:41.186Z,-2.28
2019-03-03T00:42:15.831Z,-2.35
2019-03-03T00:45:03.331Z,-2.24
2019-03-03T00:47:53.509Z,-2.38
2019-03-03T00:50:27.725Z,-2.35
2019-03-03T00:53:00.396Z,-2.20
2019-03-03T00:55:35.738Z,-2.15
2019-03-03T00:58:19.580Z,-2.31
2019-03-03T01:01:03.329Z,-2.23
2019-03-03T01:03:37.710Z,-2.30
2019-03-03T01:06:09.086Z,-2.38
2019-03-03T01:08:49.957Z,-2.36
2019-03-03T01:11:27.046Z,-2.23
2019-03-03T01:14:10.918Z,-2.24
2019-03-03T01:16:43.246Z,-2.25
2019-03-03T01:19:27.210Z,-2.37
2019-03-03T01:22:01.507Z,-2.43
2019-03-03T01:24:42.481Z,-2.38
2019-03-03T01:27:12.286Z,-2.34
2019-03-03T01:29:42.415Z,-2.24
2019-03-03T01:32:12.216Z,-2.32
2019-03-03T01:34:41.820Z,-2.22
2019-03-03T01:37:11.943Z,-2.30
2019-03-03T01:39:41.652Z,-2.25
2019-03-03T01:42:11.357Z,-2.25
2019-03-03T01:44:41.427Z,-2.22
2019-03-03T01:47:11.182Z,-2.17
2019-03-03T01:49:40.881Z,-2.23
2019-03-03T01:52:11.011Z,-2.33
2019-03-03T01:54:42.253Z,-2.34
2019-03-03T01:57:12.331Z,-2.38
2019-03-03T01:59:41.999Z,-2.21
2019-03-03T02:02:11.691Z,-2.40
2019-03-03T02:04:41.814Z,-2.36
2019-03-03T02:07:11.514Z,-2.27
2019-03-03T02:09:41.526Z,-2.35
2019-03-03T02:12:11.856Z,-2.58
2019-03-03T02:14:41.568Z,-2.35
2019-03-03T02:17:12.547Z,-2.29
2019-03-03T02:19:42.725Z,-2.35
2019-03-03T02:22:12.424Z,-2.42
2019-03-03T02:24:42.239Z,-2.43
2019-03-03T02:27:12.357Z,-2.39
2019-03-03T02:29:42.002Z,-2.48
2019-03-03T02:32:11.775Z,-2.69
2019-03-03T02:34:41.822Z,-2.45
2019-03-03T02:37:11.499Z,-2.58
2019-03-03T02:39:41.186Z,-2.44
2019-03-03T02:42:11.530Z,-2.39
2019-03-03T02:44:41.238Z,-2.59
2019-03-03T02:47:10.945Z,-2.54
2019-03-03T02:49:41.176Z,-2.53
2019-03-03T02:52:10.873Z,-2.58
2019-03-03T02:54:40.586Z,-2.68
2019-03-03T02:57:10.805Z,-2.84
2019-03-03T02:59:40.614Z,-3.13
2019-03-03T03:02:11.829Z,-3.12
2019-03-03T03:04:41.976Z,-3.02
2019-03-03T03:07:15.985Z,-2.83
2019-03-03T03:10:04.863Z,-2.82
2019-03-03T03:12:42.245Z,-2.89
2019-03-03T03:15:13.971Z,-2.78
2019-03-03T03:17:45.229Z,-2.76
2019-03-03T03:20:22.571Z,-2.86
2019-03-03T03:22:53.793Z,-2.78
2019-03-03T03:25:34.332Z,-2.90
2019-03-03T03:28:05.555Z,-2.87
2019-03-03T03:30:40.118Z,-2.96
2019-03-03T03:33:17.383Z,-2.87
2019-03-03T03:35:54.868Z,-2.98
2019-03-03T03:38:34.819Z,-3.06
2019-03-03T03:41:06.576Z,-3.05
2019-03-03T03:43:40.482Z,-3.09
2019-03-03T03:46:21.353Z,-2.94
2019-03-03T03:49:08.779Z,-2.95
2019-03-03T03:51:49.541Z,-2.89
2019-03-03T03:54:20.791Z,-2.96
2019-03-03T03:56:53.508Z,-3.09
2019-03-03T03:59:36.705Z,-3.08
2019-03-03T04:02:08.450Z,-3.05
2019-03-03T04:04:40.733Z,-3.12
2019-03-03T04:07:12.581Z,-3.14
2019-03-03T04:09:55.796Z,-3.27
2019-03-03T04:12:33.538Z,-3.29
2019-03-03T04:15:14.059Z,-3.19
2019-03-03T04:17:48.690Z,-3.30
2019-03-03T04:20:38.155Z,-3.18
2019-03-03T04:23:26.295Z,-3.24
2019-03-03T04:26:03.288Z,-3.29
2019-03-03T04:28:41.176Z,-3.27
2019-03-03T04:31:12.417Z,-3.32
2019-03-03T04:33:46.805Z,-3.26
2019-03-03T04:36:33.544Z,-3.44
2019-03-03T04:39:05.297Z,-3.31
2019-03-03T04:41:53.136Z,-3.41
2019-03-03T04:44:27.550Z,-3.50
2019-03-03T04:47:13.874Z,-3.45
2019-03-03T04:49:45.439Z,-3.47
2019-03-03T04:52:17.058Z,-3.55
2019-03-03T04:55:02.736Z,-3.48
2019-03-03T04:57:33.979Z,-3.33
2019-03-03T05:00:14.346Z,-3.42
2019-03-03T05:03:03.968Z,-3.51
2019-03-03T05:05:35.878Z,-3.67
2019-03-03T05:08:07.099Z,-3.51
2019-03-03T05:10:54.144Z,-3.47
2019-03-03T05:13:43.413Z,-3.64
2019-03-03T05:16:17.936Z,-3.46
2019-03-03T05:18:49.267Z,-3.59
2019-03-03T05:21:19.496Z,-3.53
2019-03-03T05:23:49.227Z,-3.52
2019-03-03T05:26:18.871Z,-3.48
2019-03-03T05:28:56.093Z,-3.44
2019-03-03T05:31:25.899Z,-3.47
2019-03-03T05:33:57.145Z,-3.47
2019-03-03T05:36:26.853Z,-3.53
2019-03-03T05:38:56.561Z,-3.36
2019-03-03T05:41:26.888Z,-3.55
2019-03-03T05:43:56.549Z,-3.17
2019-03-03T05:46:26.223Z,-3.27
2019-03-03T05:48:56.324Z,-3.31
2019-03-03T05:51:26.024Z,-3.44
2019-03-03T05:53:55.719Z,-3.32
2019-03-03T05:56:25.737Z,-3.29
2019-03-03T05:58:55.391Z,-3.11
2019-03-03T06:01:25.166Z,-3.26
2019-03-03T06:03:55.288Z,-3.05
2019-03-03T06:06:24.992Z,-3.18
2019-03-03T06:08:54.694Z,-3.08
2019-03-03T06:11:24.794Z,-3.00
2019-03-03T06:13:54.532Z,-2.94
2019-03-03T06:16:24.227Z,-3.05
2019-03-03T06:18:54.352Z,-3.09
2019-03-03T06:21:24.061Z,-3.04
2019-03-03T06:23:55.616Z,-2.85
2019-03-03T06:26:25.674Z,-2.81
2019-03-03T06:28:55.439Z,-2.71
2019-03-03T06:31:25.093Z,-2.69
2019-03-03T06:33:55.266Z,-2.52
2019-03-03T06:36:24.976Z,-2.42
2019-03-03T06:38:54.663Z,-2.45
2019-03-03T06:41:24.791Z,-2.26
2019-03-03T06:43:54.451Z,-2.45
2019-03-03T06:46:24.428Z,-2.31
2019-03-03T06:48:55.569Z,-2.02
2019-03-03T06:51:25.272Z,-2.06
2019-03-03T06:53:56.626Z,-2.04
2019-03-03T06:56:26.738Z,-2.10
2019-03-03T06:58:56.452Z,-2.05
2019-03-03T07:01:26.112Z,-2.08
2019-03-03T07:03:56.205Z,-1.90
2019-03-03T07:06:25.988Z,-1.66
2019-03-03T07:08:55.692Z,-1.66
2019-03-03T07:11:25.787Z,-1.83
2019-03-03T07:13:55.500Z,-1.88
2019-03-03T07:16:26.379Z,-1.74
2019-03-03T07:18:56.715Z,-1.68
2019-03-03T07:21:26.497Z,-1.70
2019-03-03T07:23:56.161Z,-1.40
2019-03-03T07:26:26.317Z,-1.37
2019-03-03T07:28:56.025Z,-1.41
2019-03-03T07:31:25.686Z,-1.33
2019-03-03T07:33:56.173Z,-1.16
2019-03-03T07:36:25.867Z,-1.20
2019-03-03T07:38:55.686Z,-1.17
2019-03-03T07:41:25.802Z,-1.24
2019-03-03T07:43:55.505Z,-1.29
2019-03-03T07:46:25.173Z,-1.40
2019-03-03T07:48:55.439Z,-1.23
2019-03-03T07:51:25.137Z,-1.10
2019-03-03T07:53:55.153Z,-1.22
2019-03-03T07:56:25.277Z,-0.93
2019-03-03T07:58:54.981Z,-0.82
2019-03-03T08:01:24.644Z,-0.51
2019-03-03T08:03:55.146Z,-0.63
2019-03-03T08:06:25.033Z,-0.68
2019-03-03T08:08:54.701Z,-0.48
2019-03-03T08:11:24.749Z,-0.68
2019-03-03T08:13:54.462Z,-0.59
2019-03-03T08:16:24.128Z,-0.73
2019-03-03T08:18:54.285Z,-0.51
2019-03-03T08:21:23.944Z,-0.36
2019-03-03T08:23:54.333Z,-0.15
2019-03-03T08:26:24.541Z,-0.13
2019-03-03T08:28:54.196Z,0.06
2019-03-03T08:31:23.958Z,0.23
2019-03-03T08:33:54.176Z,0.26
2019-03-03T08:36:23.828Z,0.11
2019-03-03T08:38:53.492Z,0.38
2019-03-03T08:41:23.712Z,0.11
2019-03-03T08:44:01.104Z,0.03
2019-03-03T08:46:35.925Z,0.09
2019-03-03T08:49:12.889Z,0.24
2019-03-03T08:51:56.641Z,0.38
2019-03-03T08:54:28.000Z,0.60
2019-03-03T08:57:05.854Z,0.28
2019-03-03T08:59:39.941Z,0.55
2019-03-03T09:02:20.770Z,0.72
2019-03-03T09:04:52.213Z,0.78
2019-03-03T09:07:32.682Z,1.06
2019-03-03T09:10:09.768Z,1.13
2019-03-03T09:12:53.806Z,1.17
2019-03-03T09:15:25.527Z,0.91
2019-03-03T09:18:13.611Z,0.98
2019-03-03T09:20:44.950Z,1.11
2019-03-03T09:23:22.436Z,1.10
2019-03-03T09:25:53.680Z,1.17
2019-03-03T09:28:28.265Z,1.19
2019-03-03T09:31:02.363Z,1.42
2019-03-03T09:33:44.620Z,1.55
2019-03-03T09:36:34.190Z,1.65
2019-03-03T09:39:09.048Z,1.82
2019-03-03T09:41:49.471Z,1.85
2019-03-03T09:44:30.253Z,2.19
2019-03-03T09:47:01.465Z,2.09
2019-03-03T09:49:49.637Z,2.29
2019-03-03T09:52:23.746Z,2.45
2019-03-03T09:54:55.501Z,1.97
2019-03-03T09:57:26.846Z,2.28
2019-03-03T10:00:04.384Z,2.32
2019-03-03T10:02:52.212Z,2.59
2019-03-03T10:05:27.629Z,2.57
2019-03-03T10:07:58.862Z,2.19
2019-03-03T10:10:48.943Z,2.79
2019-03-03T10:13:29.358Z,2.97
2019-03-03T10:16:01.069Z,3.21
2019-03-03T10:18:47.504Z,2.91
2019-03-03T10:21:21.977Z,3.09
2019-03-03T10:23:53.192Z,3.41
2019-03-03T10:26:27.795Z,3.15
2019-03-03T10:29:05.273Z,3.76
2019-03-03T10:31:47.922Z,2.98
2019-03-03T10:34:24.939Z,3.70
2019-03-03T10:36:56.689Z,3.67
2019-03-03T10:39:37.250Z,3.46
2019-03-03T10:42:12.080Z,3.70
2019-03-03T10:44:55.298Z,3.88
2019-03-03T10:47:42.115Z,3.91
2019-03-03T10:50:28.574Z,4.29
2019-03-03T10:53:09.349Z,3.97
2019-03-03T10:55:41.597Z,4.70
2019-03-03T10:58:19.569Z,4.63
2019-03-03T11:01:00.011Z,4.49
2019-03-03T11:03:34.841Z,4.33
2019-03-03T11:06:09.119Z,4.56
2019-03-03T11:08:41.023Z,4.84
2019-03-03T11:11:21.480Z,4.60
2019-03-03T11:13:55.964Z,4.78
2019-03-03T11:16:30.515Z,5.24
2019-03-03T11:19:05.383Z,5.12
2019-03-03T11:21:39.011Z,5.30
2019-03-03T11:24:10.680Z,5.42
2019-03-03T11:26:41.896Z,5.33
2019-03-03T11:29:22.826Z,4.84
2019-03-03T11:31:57.080Z,4.07
2019-03-03T11:34:36.679Z,4.53
2019-03-03T11:37:10.888Z,4.03
2019-03-03T11:39:48.449Z,3.15
2019-03-03T11:42:25.755Z,2.83
2019-03-03T11:45:00.344Z,2.66
2019-03-03T11:47:31.637Z,2.65
2019-03-03T11:50:09.397Z,2.60
2019-03-03T11:52:40.763Z,2.50
2019-03-03T11:55:15.606Z,2.33
2019-03-03T11:57:52.791Z,2.40
2019-03-03T12:00:40.946Z,2.30
2019-03-03T12:03:24.398Z,2.33
2019-03-03T12:05:59.289Z,2.25
2019-03-03T12:08:36.786Z,2.28
2019-03-03T12:11:08.646Z,2.13
2019-03-03T12:13:56.273Z,1.92
2019-03-03T12:16:44.404Z,1.78
2019-03-03T12:19:15.656Z,1.59
2019-03-03T12:21:50.630Z,1.81
2019-03-03T12:24:24.576Z,1.87
2019-03-03T12:27:02.340Z,1.74
2019-03-03T12:29:45.434Z,1.85
2019-03-03T12:32:17.173Z,1.99
2019-03-03T12:34:51.539Z,2.03
2019-03-03T12:37:23.848Z,2.13
2019-03-03T12:39:57.769Z,2.18
2019-03-03T12:42:29.499Z,2.21
2019-03-03T12:45:06.623Z,2.23
2019-03-03T12:47:38.347Z,2.30
2019-03-03T12:50:16.053Z,2.31
2019-03-03T12:52:50.670Z,2.24
2019-03-03T12:55:37.211Z,2.13
2019-03-03T12:58:11.661Z,2.01
2019-03-03T13:00:42.879Z,1.96
2019-03-03T13:03:17.577Z,2.05
2019-03-03T13:05:48.916Z,2.07
2019-03-03T13:08:20.580Z,2.17
2019-03-03T13:11:09.860Z,2.18
2019-03-03T13:13:57.661Z,2.21
2019-03-03T13:16:45.449Z,2.24
2019-03-03T13:19:29.205Z,2.30
2019-03-03T13:22:09.267Z,2.25
2019-03-03T13:24:46.786Z,2.21
2019-03-03T13:27:27.137Z,2.23
2019-03-03T13:30:01.599Z,2.31
2019-03-03T13:32:32.920Z,2.21
2019-03-03T13:35:10.408Z,2.22
2019-03-03T13:37:41.843Z,2.32
2019-03-03T13:40:28.892Z,2.43
2019-03-03T13:42:58.575Z,2.55
2019-03-03T13:45:30.162Z,2.52
2019-03-03T13:47:59.930Z,2.38
2019-03-03T13:50:30.057Z,2.33
2019-03-03T13:52:59.768Z,2.40
2019-03-03T13:55:29.421Z,2.38
2019-03-03T13:57:59.520Z,2.31
2019-03-03T14:00:29.257Z,2.28
2019-03-03T14:02:59.000Z,2.28
2019-03-03T14:05:30.092Z,2.32
2019-03-03T14:07:59.858Z,2.29
2019-03-03T14:10:29.665Z,2.27
2019-03-03T14:13:00.135Z,2.23
2019-03-03T14:15:29.900Z,2.33
2019-03-03T14:17:59.539Z,2.38
2019-03-03T14:20:29.826Z,2.26
2019-03-03T14:22:59.473Z,2.36
2019-03-03T14:25:29.143Z,2.31
2019-03-03T14:27:59.359Z,2.38
2019-03-03T14:30:29.868Z,2.38
2019-03-03T14:33:00.008Z,2.31
2019-03-03T14:35:29.693Z,2.35
2019-03-03T14:37:59.349Z,2.13
2019-03-03T14:40:29.750Z,2.03
2019-03-03T14:42:59.663Z,2.13
2019-03-03T14:45:29.417Z,2.03
2019-03-03T14:47:59.594Z,2.05
2019-03-03T14:50:29.240Z,2.03
2019-03-03T14:52:59.010Z,2.00
2019-03-03T14:55:29.434Z,2.02
2019-03-03T14:57:59.140Z,1.90
2019-03-03T15:00:32.232Z,1.90
2019-03-03T15:03:04.318Z,1.90
2019-03-03T15:05:34.102Z,1.90
2019-03-03T15:08:04.356Z,1.89
2019-03-03T15:10:34.135Z,1.84
2019-03-03T15:13:03.848Z,1.91
2019-03-03T15:15:37.107Z,1.87
2019-03-03T15:18:06.943Z,1.79
2019-03-03T15:20:37.065Z,1.87
2019-03-03T15:23:06.772Z,1.75
2019-03-03T15:25:36.480Z,1.78
2019-03-03T15:28:06.601Z,1.83
2019-03-03T15:30:36.255Z,1.77
2019-03-03T15:33:06.021Z,1.82
2019-03-03T15:35:36.235Z,1.70
2019-03-03T15:38:06.113Z,1.62
2019-03-03T15:40:35.874Z,1.60
2019-03-03T15:43:06.182Z,1.53
2019-03-03T15:45:35.893Z,1.63
2019-03-03T15:48:05.595Z,1.55
2019-03-03T15:50:35.714Z,1.59
2019-03-03T15:53:05.424Z,1.58
2019-03-03T15:55:35.134Z,1.41
2019-03-03T15:58:05.353Z,1.45
2019-03-03T16:00:41.830Z,1.50
2019-03-03T16:03:12.050Z,1.49
2019-03-03T16:05:41.851Z,1.45
2019-03-03T16:08:11.568Z,1.47
2019-03-03T16:10:41.783Z,1.42
2019-03-03T16:13:11.486Z,1.31
2019-03-03T16:15:41.197Z,1.30
2019-03-03T16:18:11.229Z,1.34
2019-03-03T16:20:41.026Z,1.30
2019-03-03T16:23:10.858Z,1.20
2019-03-03T16:25:41.035Z,1.25
2019-03-03T16:28:12.307Z,1.22
2019-03-03T16:30:41.969Z,1.24
2019-03-03T16:33:20.244Z,1.13
2019-03-03T16:35:43.580Z,1.05
2019-03-03T16:38:13.806Z,0.95
2019-03-03T16:40:43.608Z,1.09
2019-03-03T16:43:13.527Z,1.04
2019-03-03T16:45:43.639Z,1.02
2019-03-03T16:48:13.367Z,1.04
2019-03-03T16:50:43.016Z,0.94
2019-03-03T16:53:13.203Z,1.04
2019-03-03T16:55:42.900Z,0.97
2019-03-03T16:58:12.705Z,0.96
2019-03-03T17:00:42.811Z,0.97
2019-03-03T17:03:12.479Z,1.10
2019-03-03T17:05:42.750Z,1.10
2019-03-03T17:08:12.897Z,0.97
2019-03-03T17:10:42.700Z,0.90
2019-03-03T17:13:13.411Z,0.99
2019-03-03T17:15:43.629Z,0.94
2019-03-03T17:18:13.405Z,0.98
2019-03-03T17:20:43.143Z,0.87
2019-03-03T17:23:13.364Z,0.96
2019-03-03T17:25:43.092Z,0.94
2019-03-03T17:28:12.757Z,0.82
2019-03-03T17:30:43.107Z,0.90
2019-03-03T17:33:13.576Z,0.87
2019-03-03T17:35:43.317Z,0.92
2019-03-03T17:38:13.507Z,0.83
2019-03-03T17:40:43.581Z,0.90
2019-03-03T17:43:14.994Z,0.90
2019-03-03T17:45:45.862Z,0.79
2019-03-03T17:48:16.506Z,0.88
2019-03-03T17:50:47.240Z,0.83
2019-03-03T17:53:18.261Z,0.62
2019-03-03T17:55:48.490Z,0.78
2019-03-03T17:58:19.233Z,0.68
2019-03-03T18:00:49.647Z,0.80
2019-03-03T18:03:19.775Z,0.69
2019-03-03T18:05:50.422Z,0.61
2019-03-03T18:08:20.206Z,0.59
2019-03-03T18:10:50.329Z,0.55
2019-03-03T18:13:20.025Z,0.52
2019-03-03T18:15:49.944Z,0.35
2019-03-03T18:18:20.258Z,0.31
2019-03-03T18:20:49.975Z,0.21
2019-03-03T18:23:19.647Z,0.20
2019-03-03T18:25:49.827Z,0.26
2019-03-03T18:28:19.504Z,0.16
2019-03-03T18:30:49.441Z,0.14
2019-03-03T18:33:19.561Z,0.02
2019-03-03T18:35:49.243Z,0.05
2019-03-03T18:38:18.945Z,0.10
2019-03-03T18:40:49.100Z,0.07
2019-03-03T18:43:18.886Z,0.01
2019-03-03T18:45:48.597Z,-0.08
2019-03-03T18:48:18.982Z,-0.07
2019-03-03T18:50:49.580Z,-0.07
2019-03-03T18:53:19.357Z,0.04
2019-03-03T18:55:49.478Z,-0.09
2019-03-03T18:58:19.198Z,-0.04
2019-03-03T19:00:48.945Z,-0.06
2019-03-03T19:03:19.119Z,-0.08
2019-03-03T19:05:55.456Z,-0.11
2019-03-03T19:08:20.687Z,-0.11
2019-03-03T19:10:50.358Z,-0.12
2019-03-03T19:13:19.996Z,-0.18
2019-03-03T19:15:50.294Z,-0.23
2019-03-03T19:18:20.143Z,-0.20
2019-03-03T19:20:50.409Z,-0.27
2019-03-03T19:23:20.547Z,-0.25
2019-03-03T19:25:50.229Z,-0.23
2019-03-03T19:28:21.384Z,-0.31
2019-03-03T19:30:51.045Z,-0.32
2019-03-03T19:33:26.789Z,-0.39
2019-03-03T19:35:56.934Z,-0.41
2019-03-03T19:38:26.703Z,-0.57
2019-03-03T19:40:56.412Z,-0.54
2019-03-03T19:43:28.098Z,-0.54
2019-03-03T19:46:00.648Z,-0.58
2019-03-03T19:48:30.866Z,-0.48
2019-03-03T19:51:03.322Z,-0.63
2019-03-03T19:53:34.067Z,-0.70
2019-03-03T19:56:03.887Z,-0.64
2019-03-03T19:58:33.592Z,-0.59
2019-03-03T20:01:04.420Z,-0.69
2019-03-03T20:03:34.472Z,-0.73
2019-03-03T20:06:04.587Z,-0.81
2019-03-03T20:08:34.899Z,-0.90
2019-03-03T20:11:04.812Z,-0.90
2019-03-03T20:13:34.758Z,-0.99
2019-03-03T20:16:05.076Z,-1.06
2019-03-03T20:18:35.009Z,-1.22
2019-03-03T20:21:04.973Z,-1.01
2019-03-03T20:23:35.854Z,-1.42
2019-03-03T20:26:05.992Z,-1.24
2019-03-03T20:28:36.442Z,-1.22
2019-03-03T20:31:06.704Z,-1.29
2019-03-03T20:33:36.688Z,-1.47
2019-03-03T20:36:07.247Z,-1.16
2019-03-03T20:38:37.549Z,-1.26
2019-03-03T20:41:07.957Z,-1.29
2019-03-03T20:43:38.753Z,-1.37
2019-03-03T20:46:09.106Z,-1.42
2019-03-03T20:48:42.834Z,-1.33
2019-03-03T20:51:13.185Z,-1.29
2019-03-03T20:53:43.487Z,-1.42
2019-03-03T20:56:13.467Z,-1.42
2019-03-03T20:58:43.794Z,-1.44
2019-03-03T21:01:13.527Z,-1.42
2019-03-03T21:03:43.315Z,-1.39
2019-03-03T21:06:13.539Z,-1.40
2019-03-03T21:08:53.689Z,-1.43
2019-03-03T21:11:23.907Z,-1.49
2019-03-03T21:13:53.621Z,-1.35
2019-03-03T21:16:23.281Z,-1.46
2019-03-03T21:18:53.314Z,-1.34
2019-03-03T21:21:23.075Z,-1.54
2019-03-03T21:23:52.846Z,-1.38
2019-03-03T21:26:24.615Z,-1.44
2019-03-03T21:28:54.268Z,-1.68
2019-03-03T21:31:25.925Z,-1.58
2019-03-03T21:33:58.844Z,-1.48
2019-03-03T21:36:29.417Z,-1.47
2019-03-03T21:39:00.191Z,-1.48
2019-03-03T21:41:32.923Z,-1.50
2019-03-03T21:44:09.139Z,-1.48
2019-03-03T21:46:46.488Z,-1.51
2019-03-03T21:49:16.569Z,-1.47
2019-03-03T21:51:46.991Z,-1.38
2019-03-03T21:54:16.864Z,-1.44
2019-03-03T21:56:46.618Z,-1.46
2019-03-03T21:59:19.831Z,-1.58
2019-03-03T22:01:48.739Z,-1.39
2019-03-03T22:04:19.348Z,-1.41
2019-03-03T22:06:49.708Z,-1.39
2019-03-03T22:09:23.157Z,-1.59
2019-03-03T22:11:53.148Z,-1.48
2019-03-03T22:14:23.582Z,-1.78
2019-03-03T22:16:59.721Z,-1.63
2019-03-03T22:19:31.204Z,-1.52
2019-03-03T22:22:04.087Z,-1.27
2019-03-03T22:24:34.230Z,-0.05
2019-03-03T22:27:03.917Z,-0.10
2019-03-03T22:29:33.617Z,-0.67
2019-03-03T22:32:03.742Z,-1.10
2019-03-03T22:34:33.439Z,-1.41
2019-03-03T22:37:03.146Z,-1.76
2019-03-03T22:39:33.364Z,-1.59
2019-03-03T22:42:03.015Z,-1.67
2019-03-03T22:44:32.597Z,-1.72
2019-03-03T22:47:03.028Z,-1.61
2019-03-03T22:49:33.010Z,-1.61
2019-03-03T22:52:08.685Z,-1.62
2019-03-03T22:54:40.978Z,-1.72
2019-03-03T22:57:12.325Z,-1.61
2019-03-03T22:59:44.045Z,-1.65
2019-03-03T23:02:15.228Z,-1.66
2019-03-03T23:05:04.141Z,-1.78
2019-03-03T23:07:40.497Z,-1.81
2019-03-03T23:10:39.673Z,-1.81
2019-03-03T23:13:33.052Z,-1.80
2019-03-03T23:16:15.436Z,-1.83
2019-03-03T23:19:06.724Z,-1.87
2019-03-03T23:21:46.480Z,-1.84
2019-03-03T23:24:26.032Z,-1.90
2019-03-03T23:27:05.264Z,-1.90
2019-03-03T23:29:37.988Z,-1.96
2019-03-03T23:32:11.024Z,-1.91
2019-03-03T23:34:41.388Z,-1.92
2019-03-03T23:37:11.539Z,-1.82
2019-03-03T23:39:41.194Z,-2.04
2019-03-03T23:42:10.866Z,-2.04
2019-03-03T23:44:41.520Z,-1.97
2019-03-03T23:47:11.612Z,-2.08
2019-03-03T23:49:41.788Z,-2.10
2019-03-03T23:52:12.549Z,-2.19
2019-03-03T23:54:42.640Z,-2.07
2019-03-03T23:57:13.193Z,-2.18
2019-03-03T23:59:43.257Z,-2.16
